Time;durP1;ratioP1;P1;durP2;ratioP2;P2;SDS_P1;SDS_P2;PMS_P1;PMS_P2;Temp;Humidity;BMP_temperature;BMP_pressure;BME280_temperature;BME280_humidity;BME280_pressure;Samples;Min_cycle;Max_cycle;Signal;HPM_P1;HPM_P2
2021/09/30 00:00:18;;;;;;;;;;;13.00;86.40;;;;;;4331004;33;43595;-79
2021/09/30 00:02:45;;;;;;;;;;;13.00;86.50;;;;;;4330475;33;42288;-79
2021/09/30 00:05:19;;;;;;;;;;;13.00;86.60;;;;;;4330656;33;42941;-80
2021/09/30 00:07:47;;;;;;;;;;;13.00;86.50;;;;;;4317864;33;44519;-79
2021/09/30 00:10:18;;;;;;;;;;;13.00;86.60;;;;;;4329897;33;44292;-80
2021/09/30 00:12:50;;;;;;;;;;;13.00;86.50;;;;;;4330511;33;43010;-79
2021/09/30 00:16:27;;;;;;;;;;;13.00;86.60;;;;;;4331043;33;44188;-79
2021/09/30 00:32:26;;;;;;;;;;;13.00;86.60;;;;;;4327902;33;43204;-80
2021/09/30 00:35:23;;;;;;;;;;;13.00;86.50;;;;;;4330811;33;43891;-79
2021/09/30 00:51:45;;;;;;;;;;;12.90;86.40;;;;;;4330650;33;44561;-79
2021/09/30 00:54:34;;;;;;;;;;;12.90;86.40;;;;;;4317581;33;42679;-80
2021/09/30 02:59:37;;;;;;;;;;;12.40;87.30;;;;;;4331399;33;44622;-79
2021/09/30 03:02:05;;;;;;;;;;;12.30;87.20;;;;;;4332328;33;20037;-80
2021/09/30 03:04:33;;;;;;;;;;;12.30;87.20;;;;;;4330314;33;43931;-80
2021/09/30 03:07:01;;;;;;;;;;;12.30;87.20;;;;;;4331049;33;44712;-80
2021/09/30 03:09:38;;;;;;;;;;;12.30;87.20;;;;;;4331817;33;44556;-79
2021/09/30 03:12:07;;;;;;;;;;;12.30;87.20;;;;;;4318291;33;42596;-79
2021/09/30 03:14:41;;;;;;;;;;;12.30;87.20;;;;;;4331725;33;44880;-79
2021/09/30 03:17:09;;;;;;;;;;;12.20;87.20;;;;;;4331766;33;43198;-79
2021/09/30 03:19:59;;;;;;;;;;;12.20;87.20;;;;;;4318692;33;43987;-79
2021/09/30 03:22:29;;;;;;;;;;;12.20;87.30;;;;;;4331523;33;43281;-79
2021/09/30 03:24:59;;;;;;;;;;;12.20;87.30;;;;;;4318160;33;42132;-80
2021/09/30 03:27:26;;;;;;;;;;;12.20;87.40;;;;;;4330435;33;43021;-80
2021/09/30 03:29:53;;;;;;;;;;;12.20;87.40;;;;;;4330507;33;43194;-79
2021/09/30 03:32:23;;;;;;;;;;;12.10;87.40;;;;;;4331827;33;20005;-79
2021/09/30 03:34:53;;;;;;;;;;;12.10;87.40;;;;;;4331044;33;43761;-80
2021/09/30 03:37:20;;;;;;;;;;;12.10;87.60;;;;;;4331256;33;43929;-79
2021/09/30 03:39:47;;;;;;;;;;;12.00;87.60;;;;;;4331313;33;43855;-79
2021/09/30 03:42:15;;;;;;;;;;;12.00;87.60;;;;;;4330876;33;43518;-79
2021/09/30 03:44:42;;;;;;;;;;;12.00;87.60;;;;;;4331633;33;43865;-79
2021/09/30 03:47:09;;;;;;;;;;;12.00;87.80;;;;;;4330988;33;43876;-80
2021/09/30 03:49:36;;;;;;;;;;;11.90;87.80;;;;;;4329646;33;42667;-80
2021/09/30 03:57:51;;;;;;;;;;;11.90;88.00;;;;;;4327123;33;44276;-79
2021/09/30 04:00:18;;;;;;;;;;;11.90;88.10;;;;;;4330861;33;44177;-80
2021/09/30 04:02:50;;;;;;;;;;;11.90;88.20;;;;;;4330317;33;20048;-79
2021/09/30 04:05:18;;;;;;;;;;;11.80;88.20;;;;;;4317945;33;45331;-79
2021/09/30 04:07:50;;;;;;;;;;;11.90;88.30;;;;;;4317767;33;44310;-79
2021/09/30 04:10:19;;;;;;;;;;;11.80;88.20;;;;;;4329868;33;45761;-79
2021/09/30 04:12:51;;;;;;;;;;;11.80;88.20;;;;;;4330627;33;43567;-79
2021/09/30 04:15:18;;;;;;;;;;;11.80;88.20;;;;;;4330865;33;44009;-79
2021/09/30 04:17:45;;;;;;;;;;;11.80;88.20;;;;;;4330435;33;43671;-79
2021/09/30 04:20:20;;;;;;;;;;;11.80;88.30;;;;;;4329817;33;42149;-79
2021/09/30 04:22:50;;;;;;;;;;;11.80;88.30;;;;;;4330879;33;43881;-79
2021/09/30 04:25:17;;;;;;;;;;;11.80;88.30;;;;;;4330652;33;43940;-79
2021/09/30 04:27:50;;;;;;;;;;;11.80;88.30;;;;;;4329130;33;45296;-79
2021/09/30 04:30:18;;;;;;;;;;;11.70;88.30;;;;;;4317640;33;44266;-79
2021/09/30 04:32:45;;;;;;;;;;;11.70;88.40;;;;;;4330619;33;35569;-79
2021/09/30 04:35:12;;;;;;;;;;;11.70;89.20;;;;;;4330437;33;43185;-79
2021/09/30 04:37:42;;;;;;;;;;;11.70;88.40;;;;;;4330219;33;44375;-78
2021/09/30 04:40:09;;;;;;;;;;;11.70;88.40;;;;;;4330708;33;42756;-79
2021/09/30 04:42:36;;;;;;;;;;;11.70;88.40;;;;;;4317433;33;44311;-79
2021/09/30 04:45:04;;;;;;;;;;;11.60;88.40;;;;;;4329489;33;43182;-79
2021/09/30 04:47:31;;;;;;;;;;;11.60;88.50;;;;;;4330116;33;43426;-79
2021/09/30 04:49:58;;;;;;;;;;;11.60;88.60;;;;;;4329980;33;45168;-79
2021/09/30 04:52:28;;;;;;;;;;;11.60;88.60;;;;;;4316817;33;43202;-80
2021/09/30 04:54:59;;;;;;;;;;;11.60;88.60;;;;;;4317668;33;43814;-79
2021/09/30 04:57:27;;;;;;;;;;;11.60;88.60;;;;;;4328982;33;42596;-80
2021/09/30 04:59:54;;;;;;;;;;;11.50;88.70;;;;;;4329032;33;43948;-79
2021/09/30 05:02:24;;;;;;;;;;;11.50;88.70;;;;;;4330152;33;45795;-79
2021/09/30 05:04:51;;;;;;;;;;;11.50;88.80;;;;;;4317212;33;43451;-80
2021/09/30 05:07:21;;;;;;;;;;;11.50;88.80;;;;;;4330374;33;43296;-80
2021/09/30 05:09:51;;;;;;;;;;;11.40;88.80;;;;;;4332983;33;43993;-79
2021/09/30 05:12:20;;;;;;;;;;;11.40;89.00;;;;;;4320254;33;43213;-80
2021/09/30 05:14:48;;;;;;;;;;;11.40;89.00;;;;;;4332340;33;44528;-79
2021/09/30 05:17:18;;;;;;;;;;;11.40;88.90;;;;;;4319709;33;43359;-79
2021/09/30 05:19:45;;;;;;;;;;;11.40;88.90;;;;;;4333104;33;44446;-79
2021/09/30 05:22:12;;;;;;;;;;;11.40;88.90;;;;;;4332883;33;43442;-79
2021/09/30 05:24:39;;;;;;;;;;;11.40;89.00;;;;;;4332203;33;43253;-79
2021/09/30 05:27:07;;;;;;;;;;;11.30;89.00;;;;;;4332453;33;43175;-79
2021/09/30 05:29:34;;;;;;;;;;;11.30;89.00;;;;;;4333343;33;44846;-79
2021/09/30 05:32:01;;;;;;;;;;;11.30;89.00;;;;;;4332267;33;43898;-79
2021/09/30 05:34:31;;;;;;;;;;;11.30;89.00;;;;;;4333977;33;20411;-79
2021/09/30 05:36:58;;;;;;;;;;;11.30;89.10;;;;;;4319872;33;43879;-79
2021/09/30 05:39:25;;;;;;;;;;;11.30;89.10;;;;;;4319393;33;43868;-78
2021/09/30 05:41:54;;;;;;;;;;;11.30;89.10;;;;;;4332621;33;44332;-79
2021/09/30 05:44:24;;;;;;;;;;;11.30;89.20;;;;;;4332572;33;43731;-79
2021/09/30 05:46:55;;;;;;;;;;;11.30;89.20;;;;;;4319354;33;44127;-78
2021/09/30 05:49:23;;;;;;;;;;;11.20;89.20;;;;;;4319891;33;43200;-79
2021/09/30 05:51:52;;;;;;;;;;;11.20;89.20;;;;;;4319915;33;43912;-79
2021/09/30 05:54:22;;;;;;;;;;;11.20;89.20;;;;;;4331337;33;45811;-79
2021/09/30 05:56:49;;;;;;;;;;;11.20;89.30;;;;;;4331161;33;44761;-79
2021/09/30 05:59:20;;;;;;;;;;;11.20;89.30;;;;;;4332889;33;44049;-79
2021/09/30 06:03:15;;;;;;;;;;;11.20;89.20;;;;;;4330890;33;43220;-79
2021/09/30 06:13:13;;;;;;;;;;;11.10;89.50;;;;;;4317705;33;43830;-79
2021/09/30 06:15:42;;;;;;;;;;;11.20;89.70;;;;;;4331208;33;43909;-79
2021/09/30 06:18:10;;;;;;;;;;;11.10;89.80;;;;;;4331832;33;42972;-78
2021/09/30 06:20:37;;;;;;;;;;;11.10;89.80;;;;;;4331615;33;44195;-80
2021/09/30 06:23:04;;;;;;;;;;;11.10;89.80;;;;;;4331391;33;42071;-79
2021/09/30 06:25:34;;;;;;;;;;;11.10;90.00;;;;;;4331113;33;43631;-79
2021/09/30 06:28:01;;;;;;;;;;;11.10;90.00;;;;;;4330954;33;43869;-80
2021/09/30 06:30:29;;;;;;;;;;;11.00;90.00;;;;;;4331891;33;42653;-80
2021/09/30 06:32:59;;;;;;;;;;;11.10;90.00;;;;;;4332414;33;43901;-79
2021/09/30 06:35:26;;;;;;;;;;;11.00;90.00;;;;;;4333203;33;20036;-80
2021/09/30 06:37:53;;;;;;;;;;;11.10;90.10;;;;;;4332241;33;42773;-80
2021/09/30 06:40:34;;;;;;;;;;;11.00;90.10;;;;;;4331803;33;44580;-79
2021/09/30 06:43:02;;;;;;;;;;;11.00;90.10;;;;;;4319286;33;43028;-80
2021/09/30 06:45:29;;;;;;;;;;;11.00;90.20;;;;;;4332034;33;43701;-79
2021/09/30 06:47:56;;;;;;;;;;;10.90;90.10;;;;;;4331622;33;44921;-80
2021/09/30 06:50:27;;;;;;;;;;;11.00;90.20;;;;;;4332074;33;44003;-81
2021/09/30 06:52:54;;;;;;;;;;;11.00;90.30;;;;;;4330783;33;44275;-79
2021/09/30 06:55:23;;;;;;;;;;;10.90;90.20;;;;;;4331787;33;43185;-80
2021/09/30 06:57:51;;;;;;;;;;;10.90;90.30;;;;;;4332024;33;45093;-79
2021/09/30 07:00:21;;;;;;;;;;;10.90;90.30;;;;;;4331898;33;43654;-78
2021/09/30 07:02:48;;;;;;;;;;;10.90;90.30;;;;;;4330346;33;42882;-79
2021/09/30 07:05:16;;;;;;;;;;;11.00;90.30;;;;;;4331996;33;44873;-79
2021/09/30 07:07:46;;;;;;;;;;;11.00;90.30;;;;;;4331421;33;42501;-80
2021/09/30 07:10:19;;;;;;;;;;;11.00;90.30;;;;;;4319067;33;42914;-80
2021/09/30 07:12:46;;;;;;;;;;;11.00;90.30;;;;;;4330881;33;43096;-79
2021/09/30 07:15:19;;;;;;;;;;;11.00;90.30;;;;;;4331928;33;43017;-80
2021/09/30 07:17:52;;;;;;;;;;;11.00;90.30;;;;;;4330675;33;45900;-80
2021/09/30 07:20:22;;;;;;;;;;;11.00;90.40;;;;;;4330099;33;42533;-79
2021/09/30 07:22:52;;;;;;;;;;;11.00;90.40;;;;;;4331723;33;44618;-79
2021/09/30 07:25:24;;;;;;;;;;;11.00;90.40;;;;;;4331579;33;44239;-79
2021/09/30 07:27:54;;;;;;;;;;;11.00;90.40;;;;;;4330632;33;43399;-78
2021/09/30 07:30:27;;;;;;;;;;;11.10;90.40;;;;;;4329633;33;42618;-79
2021/09/30 07:32:57;;;;;;;;;;;11.10;90.40;;;;;;4330687;33;43895;-79
2021/09/30 07:35:26;;;;;;;;;;;11.10;90.40;;;;;;4330555;33;44813;-78
2021/09/30 07:37:53;;;;;;;;;;;11.10;90.50;;;;;;4318455;33;43906;-79
2021/09/30 07:40:31;;;;;;;;;;;11.10;90.50;;;;;;4331462;33;43982;-78
2021/09/30 07:43:13;;;;;;;;;;;11.10;90.50;;;;;;4329996;33;41924;-78
2021/09/30 07:45:48;;;;;;;;;;;11.10;90.50;;;;;;4331331;33;45020;-80
2021/09/30 07:48:21;;;;;;;;;;;11.10;90.50;;;;;;4330263;33;43486;-80
2021/09/30 07:50:57;;;;;;;;;;;11.10;90.50;;;;;;4331312;33;42902;-79
2021/09/30 07:53:35;;;;;;;;;;;11.20;90.60;;;;;;4331258;33;43511;-79
2021/09/30 07:56:08;;;;;;;;;;;11.20;90.60;;;;;;4330389;33;43394;-79
2021/09/30 07:58:44;;;;;;;;;;;11.20;90.60;;;;;;4330165;33;43468;-79
2021/09/30 08:01:16;;;;;;;;;;;11.20;90.50;;;;;;4331011;33;45066;-79
2021/09/30 08:03:44;;;;;;;;;;;11.30;90.60;;;;;;4331159;33;44244;-79
2021/09/30 08:06:17;;;;;;;;;;;11.30;90.60;;;;;;4317733;33;44187;-79
2021/09/30 08:09:03;;;;;;;;;;;11.30;90.60;;;;;;4318420;33;43294;-79
2021/09/30 08:11:39;;;;;;;;;;;11.30;90.60;;;;;;4329496;33;42742;-79
2021/09/30 08:14:15;;;;;;;;;;;11.40;90.70;;;;;;4329894;33;44219;-79
2021/09/30 08:16:46;;;;;;;;;;;11.50;90.60;;;;;;4331016;33;43473;-78
2021/09/30 08:19:19;;;;;;;;;;;11.40;90.60;;;;;;4329658;33;42185;-79
2021/09/30 08:21:55;;;;;;;;;;;11.40;90.60;;;;;;4331012;33;43480;-79
2021/09/30 08:24:28;;;;;;;;;;;11.40;90.50;;;;;;4317655;33;43038;-80
2021/09/30 08:27:03;;;;;;;;;;;11.50;90.60;;;;;;4329923;33;43878;-79
2021/09/30 08:29:42;;;;;;;;;;;11.40;90.60;;;;;;4330916;33;43750;-80
2021/09/30 08:32:19;;;;;;;;;;;11.40;90.50;;;;;;4318001;33;43692;-80
2021/09/30 08:34:46;;;;;;;;;;;11.40;90.60;;;;;;4317668;33;43200;-79
2021/09/30 08:37:19;;;;;;;;;;;11.40;90.60;;;;;;4330245;33;43929;-78
2021/09/30 08:39:54;;;;;;;;;;;11.40;90.60;;;;;;4330558;33;20008;-78
2021/09/30 08:42:21;;;;;;;;;;;11.50;90.60;;;;;;4329689;33;43589;-80
2021/09/30 08:44:57;;;;;;;;;;;11.50;90.60;;;;;;4330731;33;43049;-79
2021/09/30 08:47:35;;;;;;;;;;;11.50;90.60;;;;;;4329584;33;44005;-78
2021/09/30 08:50:10;;;;;;;;;;;11.50;90.60;;;;;;4329071;33;42981;-79
2021/09/30 08:52:46;;;;;;;;;;;11.50;90.60;;;;;;4329514;33;44779;-79
2021/09/30 08:55:18;;;;;;;;;;;11.60;90.60;;;;;;4317493;33;44851;-78
2021/09/30 08:58:03;;;;;;;;;;;11.60;90.60;;;;;;4329606;33;43277;-80
2021/09/30 09:00:35;;;;;;;;;;;11.60;90.60;;;;;;4330642;33;44731;-80
2021/09/30 09:03:03;;;;;;;;;;;11.60;90.60;;;;;;4330309;33;43182;-79
2021/09/30 09:05:42;;;;;;;;;;;11.70;90.60;;;;;;4330293;33;43938;-79
2021/09/30 09:08:10;;;;;;;;;;;11.70;90.60;;;;;;4317255;33;42753;-80
2021/09/30 09:10:45;;;;;;;;;;;11.70;90.60;;;;;;4330390;33;20002;-79
2021/09/30 09:13:18;;;;;;;;;;;11.80;90.60;;;;;;4330163;33;43657;-80
2021/09/30 09:15:47;;;;;;;;;;;11.80;90.60;;;;;;4317289;33;44963;-79
2021/09/30 09:18:26;;;;;;;;;;;11.80;90.50;;;;;;4317764;33;43904;-79
2021/09/30 09:21:12;;;;;;;;;;;11.80;90.50;;;;;;4317240;33;43256;-79
2021/09/30 09:23:40;;;;;;;;;;;11.80;90.50;;;;;;4329520;33;43872;-79
2021/09/30 09:26:12;;;;;;;;;;;11.80;90.60;;;;;;4330275;33;43675;-80
2021/09/30 09:28:59;;;;;;;;;;;11.90;90.60;;;;;;4329172;33;43557;-79
2021/09/30 09:31:38;;;;;;;;;;;11.90;90.60;;;;;;4329775;33;42662;-80
2021/09/30 09:34:22;;;;;;;;;;;11.90;90.60;;;;;;4330070;33;43594;-79
2021/09/30 09:36:51;;;;;;;;;;;12.00;90.60;;;;;;4316911;33;42084;-78
2021/09/30 09:39:32;;;;;;;;;;;12.00;90.50;;;;;;4330346;33;43713;-79
2021/09/30 09:42:08;;;;;;;;;;;12.00;90.50;;;;;;4331096;33;20029;-79
2021/09/30 09:44:53;;;;;;;;;;;12.10;90.50;;;;;;4330207;33;46036;-79
2021/09/30 09:47:20;;;;;;;;;;;12.10;90.50;;;;;;4329996;33;42173;-79
2021/09/30 09:50:14;;;;;;;;;;;12.10;90.50;;;;;;4329636;33;43520;-79
2021/09/30 09:52:47;;;;;;;;;;;12.10;90.50;;;;;;4324340;33;43465;-79
2021/09/30 09:55:29;;;;;;;;;;;12.20;90.40;;;;;;4332902;33;43299;-78
2021/09/30 09:58:02;;;;;;;;;;;12.20;90.50;;;;;;4332971;33;44126;-79
2021/09/30 10:00:34;;;;;;;;;;;12.20;90.50;;;;;;4331908;33;44371;-79
2021/09/30 10:03:10;;;;;;;;;;;12.20;90.50;;;;;;4332320;33;42905;-79
2021/09/30 10:05:38;;;;;;;;;;;12.30;90.50;;;;;;4331440;33;43939;-80
2021/09/30 10:08:09;;;;;;;;;;;12.30;90.50;;;;;;4332561;33;42858;-79
2021/09/30 10:10:37;;;;;;;;;;;12.30;90.50;;;;;;4332169;33;42836;-79
2021/09/30 10:13:05;;;;;;;;;;;12.40;90.50;;;;;;4319916;33;20045;-80
2021/09/30 10:15:36;;;;;;;;;;;12.40;90.50;;;;;;4319596;33;43900;-79
2021/09/30 10:18:05;;;;;;;;;;;12.40;90.60;;;;;;4331799;33;43178;-80
2021/09/30 10:20:33;;;;;;;;;;;12.50;90.50;;;;;;4318903;33;44373;-79
2021/09/30 10:23:02;;;;;;;;;;;12.50;90.40;;;;;;4332235;33;42926;-78
2021/09/30 10:25:35;;;;;;;;;;;12.50;90.40;;;;;;4332643;33;42517;-80
2021/09/30 10:28:06;;;;;;;;;;;12.60;90.50;;;;;;4319332;33;43473;-79
2021/09/30 10:30:34;;;;;;;;;;;12.60;90.40;;;;;;4318847;33;44176;-81
2021/09/30 10:33:06;;;;;;;;;;;12.60;90.30;;;;;;4332458;33;45720;-80
2021/09/30 10:35:43;;;;;;;;;;;12.70;90.40;;;;;;4319607;33;43196;-79
2021/09/30 10:38:23;;;;;;;;;;;12.70;90.40;;;;;;4318596;33;42509;-80
2021/09/30 10:41:14;;;;;;;;;;;12.80;90.30;;;;;;4331530;33;43518;-80
2021/09/30 10:43:48;;;;;;;;;;;12.80;90.20;;;;;;4331900;33;20080;-79
2021/09/30 10:46:21;;;;;;;;;;;12.80;90.20;;;;;;4319328;33;44179;-79
2021/09/30 10:48:56;;;;;;;;;;;12.90;90.20;;;;;;4331289;33;43905;-79
2021/09/30 10:51:23;;;;;;;;;;;12.90;90.20;;;;;;4332208;33;43032;-80
2021/09/30 10:53:53;;;;;;;;;;;12.90;90.10;;;;;;4331821;33;43482;-78
2021/09/30 10:56:30;;;;;;;;;;;12.90;90.10;;;;;;4331135;33;43953;-80
2021/09/30 10:59:23;;;;;;;;;;;12.90;90.10;;;;;;4331928;33;43146;-79
2021/09/30 11:01:56;;;;;;;;;;;12.90;90.10;;;;;;4315015;33;45842;-79
2021/09/30 11:04:25;;;;;;;;;;;12.90;90.20;;;;;;4330598;33;43120;-79
2021/09/30 11:07:07;;;;;;;;;;;12.90;90.20;;;;;;4318785;33;44808;-78
2021/09/30 11:09:34;;;;;;;;;;;12.90;90.10;;;;;;4330804;33;45902;-79
2021/09/30 11:12:09;;;;;;;;;;;12.90;90.10;;;;;;4318804;33;43219;-78
2021/09/30 11:14:57;;;;;;;;;;;12.90;90.00;;;;;;4319124;33;20028;-79
2021/09/30 11:17:38;;;;;;;;;;;12.90;90.20;;;;;;4331908;33;44196;-79
2021/09/30 11:20:24;;;;;;;;;;;13.00;90.20;;;;;;4331206;33;42634;-79
2021/09/30 11:22:51;;;;;;;;;;;13.00;90.20;;;;;;4330170;33;42898;-79
2021/09/30 11:25:18;;;;;;;;;;;13.00;90.20;;;;;;4318348;33;44083;-78
2021/09/30 11:27:45;;;;;;;;;;;13.00;90.20;;;;;;4331091;33;43850;-78
2021/09/30 11:30:17;;;;;;;;;;;13.00;90.10;;;;;;4330020;33;44166;-79
2021/09/30 11:32:44;;;;;;;;;;;13.00;90.50;;;;;;4331503;33;43494;-78
2021/09/30 11:35:11;;;;;;;;;;;13.00;90.10;;;;;;4317889;33;42489;-78
2021/09/30 11:37:42;;;;;;;;;;;13.00;90.10;;;;;;4318375;33;44061;-79
2021/09/30 11:40:12;;;;;;;;;;;13.00;90.10;;;;;;4318402;33;42976;-81
2021/09/30 11:42:41;;;;;;;;;;;13.10;90.10;;;;;;4318453;33;43197;-79
2021/09/30 11:45:21;;;;;;;;;;;13.10;90.20;;;;;;4331013;33;42973;-78
2021/09/30 11:47:54;;;;;;;;;;;13.10;90.10;;;;;;4330272;33;43452;-78
2021/09/30 11:50:26;;;;;;;;;;;13.10;90.00;;;;;;4317892;33;42671;-80
2021/09/30 11:53:02;;;;;;;;;;;13.10;90.10;;;;;;4318252;33;43065;-79
2021/09/30 11:55:30;;;;;;;;;;;13.10;90.10;;;;;;4318215;33;43213;-78
2021/09/30 11:58:00;;;;;;;;;;;13.10;90.00;;;;;;4330654;33;45721;-78
2021/09/30 12:00:32;;;;;;;;;;;13.10;90.00;;;;;;4329991;33;43283;-79
2021/09/30 12:03:19;;;;;;;;;;;13.10;90.00;;;;;;4330712;33;43461;-78
2021/09/30 12:05:51;;;;;;;;;;;13.10;90.00;;;;;;4331196;33;43044;-80
2021/09/30 12:08:18;;;;;;;;;;;13.10;90.00;;;;;;4330549;33;44210;-79
2021/09/30 12:10:45;;;;;;;;;;;13.10;90.00;;;;;;4330726;33;44294;-81
2021/09/30 12:13:24;;;;;;;;;;;13.20;90.30;;;;;;4330049;33;43086;-79
2021/09/30 12:15:59;;;;;;;;;;;13.10;90.00;;;;;;4332003;33;20411;-79
2021/09/30 12:18:26;;;;;;;;;;;13.10;90.00;;;;;;4317890;33;43514;-79
2021/09/30 12:21:02;;;;;;;;;;;13.20;90.00;;;;;;4330830;33;44050;-79
2021/09/30 12:23:32;;;;;;;;;;;13.20;90.00;;;;;;4317649;33;43712;-79
2021/09/30 12:26:05;;;;;;;;;;;13.20;90.00;;;;;;4330610;33;42517;-78
2021/09/30 12:28:32;;;;;;;;;;;13.20;90.00;;;;;;4330787;33;43778;-78
2021/09/30 12:31:13;;;;;;;;;;;13.20;90.00;;;;;;4317754;33;45262;-80
2021/09/30 12:33:40;;;;;;;;;;;13.20;90.00;;;;;;4329977;33;44052;-79
2021/09/30 12:36:22;;;;;;;;;;;13.20;90.00;;;;;;4317953;33;45188;-79
2021/09/30 12:38:59;;;;;;;;;;;13.20;90.00;;;;;;4330006;33;43497;-78
2021/09/30 12:41:30;;;;;;;;;;;13.20;89.70;;;;;;4330680;33;43304;-78
2021/09/30 12:44:15;;;;;;;;;;;13.20;89.80;;;;;;4317613;33;43494;-79
2021/09/30 12:46:46;;;;;;;;;;;13.30;89.90;;;;;;4329983;33;19986;-79
2021/09/30 12:49:19;;;;;;;;;;;13.30;90.00;;;;;;4316984;33;42089;-79
2021/09/30 12:51:49;;;;;;;;;;;13.30;89.90;;;;;;4330590;33;44000;-79
2021/09/30 12:54:26;;;;;;;;;;;13.30;89.90;;;;;;4317398;33;42952;-79
2021/09/30 12:57:10;;;;;;;;;;;13.30;89.80;;;;;;4330465;33;42099;-80
2021/09/30 12:59:38;;;;;;;;;;;13.30;89.80;;;;;;4330715;33;43735;-78
2021/09/30 13:02:08;;;;;;;;;;;13.40;89.90;;;;;;4330314;33;43895;-78
2021/09/30 13:04:50;;;;;;;;;;;13.40;89.90;;;;;;4330469;33;42862;-79
2021/09/30 13:07:20;;;;;;;;;;;13.40;89.90;;;;;;4330058;33;43592;-78
2021/09/30 13:10:02;;;;;;;;;;;13.40;89.90;;;;;;4330296;33;43720;-79
2021/09/30 13:12:29;;;;;;;;;;;13.50;90.00;;;;;;4329367;33;43486;-79
2021/09/30 13:14:59;;;;;;;;;;;13.50;89.80;;;;;;4328880;33;43611;-81
2021/09/30 13:17:27;;;;;;;;;;;13.50;89.80;;;;;;4330469;33;20033;-79
2021/09/30 13:20:02;;;;;;;;;;;13.50;89.70;;;;;;4330460;33;43695;-78
2021/09/30 13:22:34;;;;;;;;;;;13.50;89.60;;;;;;4330518;33;43863;-78
2021/09/30 13:25:16;;;;;;;;;;;13.50;89.80;;;;;;4330524;33;43383;-81
2021/09/30 13:27:44;;;;;;;;;;;13.40;89.50;;;;;;4330562;33;43010;-78
2021/09/30 13:30:12;;;;;;;;;;;13.40;89.50;;;;;;4320009;33;45938;-79
2021/09/30 13:32:43;;;;;;;;;;;13.40;89.50;;;;;;4331592;33;43477;-79
2021/09/30 13:35:16;;;;;;;;;;;13.50;89.70;;;;;;4320179;33;43027;-78
2021/09/30 13:37:49;;;;;;;;;;;13.40;89.70;;;;;;4332917;33;43848;-79
2021/09/30 13:40:22;;;;;;;;;;;13.40;89.70;;;;;;4333208;33;43478;-78
2021/09/30 13:42:52;;;;;;;;;;;13.50;89.60;;;;;;4319646;33;42740;-78
2021/09/30 13:45:20;;;;;;;;;;;13.50;89.70;;;;;;4319874;33;43079;-80
2021/09/30 13:47:50;;;;;;;;;;;13.50;89.60;;;;;;4320974;33;20089;-79
2021/09/30 13:50:23;;;;;;;;;;;13.50;89.70;;;;;;4320416;33;44219;-78
2021/09/30 13:52:51;;;;;;;;;;;13.50;89.70;;;;;;4332850;33;44259;-79
2021/09/30 13:55:22;;;;;;;;;;;13.50;89.80;;;;;;4332794;33;43208;-79
2021/09/30 13:57:52;;;;;;;;;;;13.50;89.70;;;;;;4333000;33;43223;-79
2021/09/30 14:00:19;;;;;;;;;;;13.50;89.70;;;;;;4332790;33;45224;-79
2021/09/30 14:02:47;;;;;;;;;;;13.50;89.60;;;;;;4332218;33;43873;-79
2021/09/30 14:05:18;;;;;;;;;;;13.50;89.70;;;;;;4332623;33;42008;-79
2021/09/30 14:07:46;;;;;;;;;;;13.50;89.80;;;;;;4319480;33;44078;-79
2021/09/30 14:10:20;;;;;;;;;;;13.50;89.70;;;;;;4332919;33;43177;-78
2021/09/30 14:12:50;;;;;;;;;;;13.60;89.60;;;;;;4331443;33;43015;-79
2021/09/30 14:15:18;;;;;;;;;;;13.60;89.60;;;;;;4331123;33;42759;-79
2021/09/30 14:17:47;;;;;;;;;;;13.60;89.80;;;;;;4319467;33;38498;-79
2021/09/30 14:20:20;;;;;;;;;;;13.60;89.70;;;;;;4332180;33;43883;-79
2021/09/30 14:22:50;;;;;;;;;;;13.70;89.70;;;;;;4332144;33;42729;-79
2021/09/30 14:25:23;;;;;;;;;;;13.70;89.70;;;;;;4332021;33;43248;-79
2021/09/30 14:27:58;;;;;;;;;;;13.70;89.50;;;;;;4332587;33;42699;-78
2021/09/30 14:30:26;;;;;;;;;;;13.70;89.60;;;;;;4319205;33;44861;-80
2021/09/30 14:33:16;;;;;;;;;;;13.70;89.50;;;;;;4321378;33;44968;-79
2021/09/30 14:35:43;;;;;;;;;;;13.80;89.50;;;;;;4318908;33;42335;-79
2021/09/30 14:38:18;;;;;;;;;;;13.80;89.60;;;;;;4332193;33;42180;-78
2021/09/30 14:40:50;;;;;;;;;;;13.80;89.50;;;;;;4330298;33;43882;-78
2021/09/30 14:43:21;;;;;;;;;;;13.80;89.50;;;;;;4331847;33;42938;-78
2021/09/30 14:45:49;;;;;;;;;;;13.80;89.40;;;;;;4332359;33;43441;-79
2021/09/30 14:48:19;;;;;;;;;;;13.80;89.40;;;;;;4331145;33;44672;-79
2021/09/30 14:50:52;;;;;;;;;;;13.80;89.30;;;;;;4332500;33;19994;-79
2021/09/30 14:53:25;;;;;;;;;;;13.90;89.40;;;;;;4318887;33;44220;-80
2021/09/30 14:55:52;;;;;;;;;;;13.80;89.00;;;;;;4318500;33;42702;-79
2021/09/30 14:58:19;;;;;;;;;;;13.80;89.30;;;;;;4331653;33;43998;-78
2021/09/30 15:00:50;;;;;;;;;;;13.80;89.30;;;;;;4318838;33;43299;-79
2021/09/30 15:03:20;;;;;;;;;;;13.80;89.20;;;;;;4318276;33;43290;-78
2021/09/30 15:05:50;;;;;;;;;;;13.90;89.30;;;;;;4330904;33;43205;-78
2021/09/30 15:08:20;;;;;;;;;;;13.80;88.60;;;;;;4331626;33;42499;-78
2021/09/30 15:10:47;;;;;;;;;;;13.80;88.70;;;;;;4330737;33;46340;-78
2021/09/30 15:13:20;;;;;;;;;;;13.80;88.80;;;;;;4331547;33;44723;-79
2021/09/30 15:15:47;;;;;;;;;;;13.80;88.90;;;;;;4318111;33;44021;-78
2021/09/30 15:19:21;;;;;;;;;;;13.80;88.90;;;;;;4330155;33;45943;-79
2021/09/30 15:21:26;;;;;;;;;;;13.80;88.70;;;;;;4328139;33;20006;-79
2021/09/30 15:24:05;;;;;;;;;;;13.80;88.80;;;;;;4318362;33;44115;-79
2021/09/30 15:26:36;;;;;;;;;;;13.90;89.00;;;;;;4331627;33;42614;-79
2021/09/30 15:29:09;;;;;;;;;;;13.90;89.00;;;;;;4331606;33;43184;-79
2021/09/30 15:31:42;;;;;;;;;;;13.90;88.80;;;;;;4331284;33;42560;-77
2021/09/30 15:34:10;;;;;;;;;;;13.90;88.80;;;;;;4330450;33;44943;-79
2021/09/30 15:36:38;;;;;;;;;;;13.90;88.80;;;;;;4331497;33;43042;-79
2021/09/30 15:39:08;;;;;;;;;;;13.80;88.80;;;;;;4330404;33;42979;-79
2021/09/30 15:41:45;;;;;;;;;;;13.90;88.90;;;;;;4331355;33;44341;-79
2021/09/30 15:44:18;;;;;;;;;;;13.90;88.90;;;;;;4318098;33;42228;-78
2021/09/30 15:46:51;;;;;;;;;;;13.90;88.90;;;;;;4331278;33;43478;-78
2021/09/30 15:49:18;;;;;;;;;;;13.90;88.90;;;;;;4330185;33;43926;-79
2021/09/30 15:51:48;;;;;;;;;;;13.90;88.90;;;;;;4331431;33;20012;-79
2021/09/30 15:54:21;;;;;;;;;;;13.90;88.90;;;;;;4330887;33;43477;-79
2021/09/30 15:56:48;;;;;;;;;;;13.90;88.80;;;;;;4318322;33;43488;-78
2021/09/30 15:59:16;;;;;;;;;;;13.90;89.00;;;;;;4331041;33;44183;-79
2021/09/30 16:01:49;;;;;;;;;;;13.90;89.00;;;;;;4329818;33;44895;-79
2021/09/30 16:04:19;;;;;;;;;;;13.80;88.90;;;;;;4331190;33;43526;-79
2021/09/30 16:06:49;;;;;;;;;;;13.90;89.00;;;;;;4317867;33;44188;-79
2021/09/30 16:09:19;;;;;;;;;;;13.80;88.90;;;;;;4330760;33;42298;-77
2021/09/30 16:11:46;;;;;;;;;;;13.80;88.90;;;;;;4317609;33;42378;-79
2021/09/30 16:14:15;;;;;;;;;;;13.80;88.90;;;;;;4331013;33;43581;-78
2021/09/30 16:16:45;;;;;;;;;;;13.80;88.90;;;;;;4330830;33;43996;-79
2021/09/30 16:19:15;;;;;;;;;;;13.90;88.90;;;;;;4331002;33;43480;-79
2021/09/30 16:21:48;;;;;;;;;;;13.80;88.70;;;;;;4330986;33;43522;-79
2021/09/30 16:24:15;;;;;;;;;;;13.80;88.70;;;;;;4330612;33;43606;-78
2021/09/30 16:26:42;;;;;;;;;;;13.80;88.70;;;;;;4330675;33;44352;-79
2021/09/30 16:29:18;;;;;;;;;;;13.80;88.80;;;;;;4329622;33;43355;-79
2021/09/30 16:31:50;;;;;;;;;;;13.80;88.60;;;;;;4317107;33;42584;-78
2021/09/30 16:34:20;;;;;;;;;;;13.80;88.80;;;;;;4329870;33;45535;-79
2021/09/30 16:36:50;;;;;;;;;;;13.90;88.80;;;;;;4317910;33;43433;-79
2021/09/30 16:39:20;;;;;;;;;;;13.80;88.60;;;;;;4317599;33;44355;-79
2021/09/30 16:41:47;;;;;;;;;;;13.80;88.70;;;;;;4330685;33;44707;-78
2021/09/30 16:44:23;;;;;;;;;;;13.80;88.70;;;;;;4330341;33;43477;-79
2021/09/30 16:46:54;;;;;;;;;;;13.80;88.80;;;;;;4329845;33;43487;-79
2021/09/30 16:49:24;;;;;;;;;;;13.80;88.70;;;;;;4330817;33;45843;-79
2021/09/30 16:51:55;;;;;;;;;;;13.80;88.70;;;;;;4330579;33;44180;-79
2021/09/30 16:54:26;;;;;;;;;;;13.80;88.70;;;;;;4330234;33;20048;-79
2021/09/30 16:56:59;;;;;;;;;;;13.80;89.50;;;;;;4329529;33;45745;-80
2021/09/30 16:59:32;;;;;;;;;;;13.80;88.70;;;;;;4317196;33;43684;-80
2021/09/30 17:02:07;;;;;;;;;;;13.80;88.50;;;;;;4317135;33;44771;-79
2021/09/30 17:04:43;;;;;;;;;;;13.80;88.60;;;;;;4329718;33;43118;-79
2021/09/30 17:07:13;;;;;;;;;;;13.80;88.60;;;;;;4330492;33;43550;-79
2021/09/30 17:09:40;;;;;;;;;;;13.80;88.60;;;;;;4317176;33;43816;-79
2021/09/30 17:12:13;;;;;;;;;;;13.80;88.50;;;;;;4329245;33;43650;-79
2021/09/30 17:14:40;;;;;;;;;;;13.80;88.50;;;;;;4330710;33;42978;-79
2021/09/30 17:17:07;;;;;;;;;;;13.80;88.70;;;;;;4330004;33;44191;-79
2021/09/30 17:19:34;;;;;;;;;;;13.80;88.60;;;;;;4317248;33;43211;-79
2021/09/30 17:22:05;;;;;;;;;;;13.80;88.70;;;;;;4328832;33;44183;-79
2021/09/30 17:24:36;;;;;;;;;;;13.80;88.70;;;;;;4317885;33;20041;-79
2021/09/30 17:27:03;;;;;;;;;;;13.80;88.70;;;;;;4329369;33;45756;-79